createdAt,value
2019-04-03T00:00:00.083Z,5.07
2019-04-03T00:02:26.426Z,5.20
2019-04-03T00:04:52.572Z,4.90
2019-04-03T00:07:18.886Z,5.80
2019-04-03T00:09:45.025Z,4.80
2019-04-03T00:12:11.214Z,4.53
2019-04-03T00:14:37.383Z,5.10
2019-04-03T00:17:03.588Z,5.27
2019-04-03T00:19:29.775Z,5.47
2019-04-03T00:21:55.999Z,5.17
2019-04-03T00:24:22.978Z,5.90
2019-04-03T00:26:51.991Z,5.23
2019-04-03T00:29:17.574Z,4.60
2019-04-03T00:31:43.867Z,5.43
2019-04-03T00:34:10.123Z,8.37
2019-04-03T00:36:36.443Z,5.53
2019-04-03T00:39:05.944Z,5.50
2019-04-03T00:41:32.229Z,6.10
2019-04-03T00:43:58.444Z,5.43
2019-04-03T00:46:25.178Z,5.73
2019-04-03T00:48:51.569Z,5.63
2019-04-03T00:51:17.765Z,5.40
2019-04-03T00:53:44.359Z,5.40
2019-04-03T00:56:10.546Z,5.40
2019-04-03T00:58:38.859Z,5.13
2019-04-03T01:01:06.627Z,5.87
2019-04-03T01:03:32.799Z,8.17
2019-04-03T01:05:59.240Z,7.20
2019-04-03T01:08:25.465Z,6.40
2019-04-03T01:10:51.630Z,5.80
2019-04-03T01:13:18.100Z,5.57
2019-04-03T01:15:44.302Z,4.53
2019-04-03T01:18:10.586Z,5.40
2019-04-03T01:20:36.885Z,4.60
2019-04-03T01:23:03.046Z,5.13
2019-04-03T01:25:29.231Z,5.10
2019-04-03T01:27:55.420Z,5.07
2019-04-03T01:30:21.624Z,4.97
2019-04-03T01:32:47.784Z,5.57
2019-04-03T01:35:14.001Z,6.00
2019-04-03T01:37:40.273Z,5.53
2019-04-03T01:40:06.558Z,5.47
2019-04-03T01:42:32.772Z,5.40
2019-04-03T01:44:58.918Z,5.83
2019-04-03T01:47:27.367Z,5.97
2019-04-03T01:49:53.254Z,5.53
2019-04-03T01:52:19.406Z,5.67
2019-04-03T01:54:45.815Z,7.77
2019-04-03T01:57:11.983Z,5.60
2019-04-03T01:59:38.196Z,5.67
2019-04-03T02:02:04.442Z,5.30
2019-04-03T02:04:30.766Z,5.20
2019-04-03T02:06:56.910Z,5.70
2019-04-03T02:09:23.199Z,5.17
2019-04-03T02:11:49.825Z,5.10
2019-04-03T02:14:16.040Z,4.70
2019-04-03T02:16:42.217Z,5.57
2019-04-03T02:19:08.416Z,5.67
2019-04-03T02:21:34.720Z,5.30
2019-04-03T02:24:01.318Z,5.40
2019-04-03T02:26:28.041Z,5.53
2019-04-03T02:28:54.208Z,5.30
2019-04-03T02:31:20.575Z,5.93
2019-04-03T02:33:46.821Z,6.57
2019-04-03T02:36:13.256Z,5.73
2019-04-03T02:38:39.612Z,5.67
2019-04-03T02:41:06.112Z,5.83
2019-04-03T02:43:32.272Z,5.10
2019-04-03T02:45:58.426Z,5.30
2019-04-03T02:48:24.628Z,4.47
2019-04-03T02:50:50.987Z,5.13
2019-04-03T02:53:17.588Z,5.23
2019-04-03T02:55:45.706Z,4.83
2019-04-03T02:58:11.866Z,5.20
2019-04-03T03:00:38.044Z,5.80
2019-04-03T03:03:04.262Z,4.80
2019-04-03T03:05:30.387Z,4.47
2019-04-03T03:07:56.580Z,4.73
2019-04-03T03:10:22.801Z,4.70
2019-04-03T03:12:50.004Z,5.37
2019-04-03T03:15:16.361Z,6.07
2019-04-03T03:17:43.011Z,6.00
2019-04-03T03:20:09.168Z,5.50
2019-04-03T03:22:36.740Z,5.40
2019-04-03T03:25:05.374Z,7.20
2019-04-03T03:27:31.547Z,5.97
2019-04-03T03:29:59.734Z,5.87
2019-04-03T03:32:32.342Z,5.00
2019-04-03T03:35:07.440Z,5.47
2019-04-03T03:37:23.311Z,5.13
2019-04-03T03:39:50.343Z,5.13
2019-04-03T03:42:18.013Z,5.33
2019-04-03T03:44:46.086Z,4.90
2019-04-03T03:47:12.634Z,5.77
2019-04-03T03:49:39.895Z,4.57
2019-04-03T03:52:06.488Z,4.57
2019-04-03T03:54:33.280Z,4.30
2019-04-03T03:57:03.998Z,3.57
2019-04-03T03:59:29.236Z,3.93
2019-04-03T04:01:55.438Z,4.07
2019-04-03T04:04:21.873Z,4.47
2019-04-03T04:06:48.368Z,7.90
2019-04-03T04:09:17.478Z,8.03
2019-04-03T04:11:43.122Z,9.07
2019-04-03T04:14:10.335Z,5.87
2019-04-03T04:16:37.647Z,5.97
2019-04-03T04:19:05.490Z,6.33
2019-04-03T04:21:31.704Z,6.47
2019-04-03T04:23:57.984Z,5.93
2019-04-03T04:26:24.142Z,5.63
2019-04-03T04:28:50.316Z,5.10
2019-04-03T04:31:16.527Z,5.50
2019-04-03T04:33:42.928Z,5.63
2019-04-03T04:36:09.469Z,7.57
2019-04-03T04:38:35.794Z,8.70
2019-04-03T04:41:02.278Z,7.73
2019-04-03T04:43:28.460Z,8.17
2019-04-03T04:45:54.700Z,7.80
2019-04-03T04:48:21.420Z,8.53
2019-04-03T04:50:47.819Z,8.00
2019-04-03T04:53:14.277Z,9.13
2019-04-03T04:55:40.434Z,9.17
2019-04-03T04:58:06.608Z,9.13
2019-04-03T05:00:32.904Z,8.10
2019-04-03T05:03:01.086Z,7.23
2019-04-03T05:05:28.378Z,7.67
2019-04-03T05:07:55.254Z,6.90
2019-04-03T05:10:21.441Z,7.10
2019-04-03T05:12:47.600Z,7.27
2019-04-03T05:15:13.894Z,10.10
2019-04-03T05:17:40.078Z,10.57
2019-04-03T05:20:06.750Z,9.70
2019-04-03T05:22:33.345Z,6.97
2019-04-03T05:25:00.045Z,8.20
2019-04-03T05:27:26.412Z,7.10
2019-04-03T05:29:52.736Z,6.67
2019-04-03T05:32:18.928Z,11.67
2019-04-03T05:34:45.114Z,6.10
2019-04-03T05:37:12.037Z,6.93
2019-04-03T05:39:38.286Z,5.97
2019-04-03T05:42:04.466Z,7.03
2019-04-03T05:44:33.140Z,5.00
2019-04-03T05:47:00.015Z,5.00
2019-04-03T05:49:26.273Z,5.33
2019-04-03T05:51:52.500Z,5.47
2019-04-03T05:54:18.667Z,5.57
2019-04-03T05:56:44.839Z,6.73
2019-04-03T05:59:11.221Z,9.07
2019-04-03T06:01:37.385Z,10.57
2019-04-03T06:04:03.565Z,12.57
2019-04-03T06:06:29.767Z,10.00
2019-04-03T06:08:56.997Z,7.47
2019-04-03T06:11:23.462Z,4.33
2019-04-03T06:13:49.655Z,5.57
2019-04-03T06:16:16.817Z,5.50
2019-04-03T06:18:43.656Z,4.07
2019-04-03T06:21:09.851Z,4.10
2019-04-03T06:23:36.242Z,5.37
2019-04-03T06:26:03.112Z,4.10
2019-04-03T06:28:29.448Z,3.20
2019-04-03T06:30:56.739Z,4.43
2019-04-03T06:33:23.309Z,3.57
2019-04-03T06:35:50.476Z,5.43
2019-04-03T06:38:17.004Z,3.87
2019-04-03T06:40:43.326Z,4.67
2019-04-03T06:43:09.589Z,3.77
2019-04-03T06:45:36.218Z,4.53
2019-04-03T06:48:04.499Z,3.40
2019-04-03T06:50:30.532Z,3.13
2019-04-03T06:52:56.735Z,3.63
2019-04-03T06:55:24.813Z,2.63
2019-04-03T06:57:51.189Z,2.30
2019-04-03T07:00:17.715Z,2.40
2019-04-03T07:02:44.165Z,2.80
2019-04-03T07:05:11.038Z,2.90
2019-04-03T07:07:37.558Z,3.13
2019-04-03T07:10:05.381Z,3.60
2019-04-03T07:12:33.184Z,3.40
2019-04-03T07:14:59.446Z,4.23
2019-04-03T07:17:25.732Z,4.07
2019-04-03T07:19:51.953Z,4.40
2019-04-03T07:22:18.120Z,3.33
2019-04-03T07:24:44.267Z,3.20
2019-04-03T07:27:10.466Z,2.40
2019-04-03T07:29:36.621Z,3.00
2019-04-03T07:32:03.471Z,3.17
2019-04-03T07:34:29.738Z,2.63
2019-04-03T07:36:56.037Z,2.37
2019-04-03T07:39:22.180Z,3.93
2019-04-03T07:41:48.565Z,2.37
2019-04-03T07:44:14.798Z,2.27
2019-04-03T07:46:40.986Z,1.93
2019-04-03T07:49:09.075Z,2.60
2019-04-03T07:51:35.248Z,1.67
2019-04-03T07:54:04.331Z,2.00
2019-04-03T07:56:29.989Z,2.00
2019-04-03T07:58:57.980Z,2.47
2019-04-03T08:01:24.278Z,2.20
2019-04-03T08:03:52.110Z,2.13
2019-04-03T08:06:18.814Z,2.33
2019-04-03T08:08:45.180Z,2.17
2019-04-03T08:11:14.266Z,2.77
2019-04-03T08:13:39.622Z,2.83
2019-04-03T08:16:06.016Z,2.27
2019-04-03T08:18:32.523Z,2.10
2019-04-03T08:21:01.484Z,2.03
2019-04-03T08:23:26.867Z,2.13
2019-04-03T08:25:54.546Z,2.20
2019-04-03T08:28:21.187Z,2.30
2019-04-03T08:30:47.398Z,2.00
2019-04-03T08:33:17.901Z,1.70
2019-04-03T08:35:42.081Z,1.80
2019-04-03T08:38:08.268Z,1.93
2019-04-03T08:40:34.587Z,2.10
2019-04-03T08:43:01.346Z,1.87
2019-04-03T08:45:27.711Z,2.33
2019-04-03T08:47:54.045Z,2.27
2019-04-03T08:50:20.197Z,2.03
2019-04-03T08:52:46.713Z,2.40
2019-04-03T08:55:14.541Z,2.30
2019-04-03T08:57:41.127Z,1.90
2019-04-03T09:00:09.096Z,2.70
2019-04-03T09:02:35.518Z,2.60
2019-04-03T09:05:01.854Z,2.50
2019-04-03T09:07:28.053Z,3.17
2019-04-03T09:09:54.236Z,2.20
2019-04-03T09:12:20.815Z,2.10
2019-04-03T09:14:47.081Z,2.37
2019-04-03T09:17:13.398Z,2.90
2019-04-03T09:19:41.761Z,2.33
2019-04-03T09:22:07.664Z,2.73
2019-04-03T09:24:33.981Z,2.23
2019-04-03T09:27:00.168Z,2.30
2019-04-03T09:29:26.414Z,2.03
2019-04-03T09:31:55.879Z,1.60
2019-04-03T09:34:21.092Z,2.17
2019-04-03T09:36:47.656Z,2.17
2019-04-03T09:39:14.672Z,1.90
2019-04-03T09:41:41.340Z,2.40
2019-04-03T09:44:07.818Z,2.13
2019-04-03T09:46:34.052Z,2.10
2019-04-03T09:49:00.346Z,2.73
2019-04-03T09:51:26.520Z,2.07
2019-04-03T09:53:52.733Z,2.30
2019-04-03T09:56:19.268Z,1.93
2019-04-03T09:58:45.527Z,2.23
2019-04-03T10:01:15.721Z,2.27
2019-04-03T10:03:39.840Z,2.40
2019-04-03T10:06:05.990Z,1.73
2019-04-03T10:08:32.188Z,2.17
2019-04-03T10:10:58.381Z,2.37
2019-04-03T10:13:25.899Z,1.90
2019-04-03T10:15:52.712Z,2.00
2019-04-03T10:18:21.844Z,2.30
2019-04-03T10:20:48.679Z,2.07
2019-04-03T10:23:15.160Z,2.10
2019-04-03T10:25:41.321Z,1.67
2019-04-03T10:28:07.494Z,2.23
2019-04-03T10:30:33.956Z,2.67
2019-04-03T10:33:01.042Z,1.83
2019-04-03T10:35:27.507Z,1.97
2019-04-03T10:37:54.078Z,2.77
2019-04-03T10:40:23.540Z,2.40
2019-04-03T10:42:48.476Z,2.40
2019-04-03T10:45:16.176Z,2.03
2019-04-03T10:47:44.589Z,2.00
2019-04-03T10:50:11.291Z,2.30
2019-04-03T10:52:37.471Z,2.50
2019-04-03T10:55:05.124Z,2.20
2019-04-03T10:57:31.717Z,2.00
2019-04-03T10:59:59.441Z,1.83
2019-04-03T11:02:25.611Z,2.10
2019-04-03T11:04:51.862Z,2.37
2019-04-03T11:07:18.031Z,1.40
2019-04-03T11:09:44.529Z,2.03
2019-04-03T11:12:10.745Z,2.20
2019-04-03T11:14:39.032Z,2.43
2019-04-03T11:17:05.087Z,2.23
2019-04-03T11:19:31.239Z,2.43
2019-04-03T11:21:57.457Z,2.93
2019-04-03T11:24:23.719Z,2.43
2019-04-03T11:26:51.775Z,2.53
2019-04-03T11:29:18.176Z,2.20
2019-04-03T11:31:44.472Z,2.40
2019-04-03T11:34:12.580Z,2.70
2019-04-03T11:36:45.335Z,2.37
2019-04-03T11:39:15.148Z,2.07
2019-04-03T11:41:39.676Z,1.67
2019-04-03T11:44:05.895Z,2.27
2019-04-03T11:46:34.257Z,2.17
2019-04-03T11:49:00.283Z,2.33
2019-04-03T11:51:28.938Z,3.03
2019-04-03T11:53:54.703Z,2.20
2019-04-03T11:56:20.853Z,1.43
2019-04-03T11:58:47.048Z,2.87
2019-04-03T12:04:00.878Z,2.30
2019-04-03T12:06:27.402Z,2.27
2019-04-03T12:08:53.703Z,2.43
2019-04-03T12:11:19.897Z,2.97
2019-04-03T12:13:46.660Z,1.60
2019-04-03T12:16:23.896Z,2.60
2019-04-03T12:18:49.632Z,2.43
2019-04-03T12:21:18.309Z,2.23
2019-04-03T12:23:44.293Z,2.17
2019-04-03T12:26:11.344Z,2.60
2019-04-03T12:28:38.658Z,2.53
2019-04-03T12:31:05.079Z,2.43
2019-04-03T12:33:31.362Z,2.70
2019-04-03T12:36:00.807Z,3.30
2019-04-03T12:38:28.414Z,3.30
2019-04-03T12:40:54.650Z,3.47
2019-04-03T12:43:20.931Z,2.30
2019-04-03T12:45:47.107Z,2.93
2019-04-03T12:48:17.373Z,2.60
2019-04-03T12:50:43.964Z,2.43
2019-04-03T12:53:10.437Z,2.60
2019-04-03T12:55:37.024Z,2.73
2019-04-03T12:58:04.673Z,3.03
2019-04-03T13:00:31.517Z,2.80
2019-04-03T13:02:57.996Z,2.80
2019-04-03T13:05:24.328Z,2.33
2019-04-03T13:07:51.122Z,2.53
2019-04-03T13:10:17.865Z,2.60
2019-04-03T13:12:44.075Z,3.53
2019-04-03T13:15:10.971Z,3.40
2019-04-03T13:17:37.356Z,2.53
2019-04-03T13:20:06.121Z,2.63
2019-04-03T13:22:32.800Z,2.30
2019-04-03T13:24:59.006Z,3.30
2019-04-03T13:27:25.539Z,3.60
2019-04-03T13:29:52.259Z,3.03
2019-04-03T13:32:18.733Z,2.97
2019-04-03T13:34:44.942Z,3.10
2019-04-03T13:37:11.150Z,3.10
2019-04-03T13:39:37.398Z,3.57
2019-04-03T13:42:04.050Z,3.43
2019-04-03T13:44:30.226Z,3.40
2019-04-03T13:46:56.416Z,3.27
2019-04-03T13:49:22.685Z,2.37
2019-04-03T13:51:48.836Z,2.73
2019-04-03T13:54:15.287Z,3.27
2019-04-03T13:56:43.037Z,2.83
2019-04-03T13:59:09.813Z,3.20
2019-04-03T14:01:39.479Z,3.50
2019-04-03T14:04:04.855Z,3.53
2019-04-03T14:06:31.283Z,2.87
2019-04-03T14:08:58.545Z,2.90
2019-04-03T14:11:24.728Z,3.20
2019-04-03T14:13:50.902Z,3.30
2019-04-03T14:16:21.558Z,3.40
2019-04-03T14:18:45.867Z,3.27
2019-04-03T14:21:12.336Z,4.10
2019-04-03T14:23:40.998Z,5.33
2019-04-03T14:26:08.431Z,9.13
2019-04-03T14:28:35.585Z,4.70
2019-04-03T14:31:04.964Z,3.97
2019-04-03T14:33:41.805Z,5.43
2019-04-03T14:35:58.969Z,4.83
2019-04-03T14:38:27.719Z,4.40
2019-04-03T14:40:53.839Z,3.67
2019-04-03T14:43:22.053Z,5.53
2019-04-03T14:45:48.548Z,11.00
2019-04-03T14:48:14.998Z,4.80
2019-04-03T14:50:41.300Z,7.10
2019-04-03T14:53:07.530Z,8.80
2019-04-03T14:55:45.907Z,10.00
2019-04-03T14:58:01.936Z,4.57
2019-04-03T15:00:31.266Z,4.30
2019-04-03T15:02:57.568Z,4.20
2019-04-03T15:05:24.321Z,4.80
2019-04-03T15:07:50.917Z,4.47
2019-04-03T15:10:18.598Z,3.10
2019-04-03T15:12:44.906Z,3.33
2019-04-03T15:15:11.604Z,3.97
2019-04-03T15:17:38.258Z,3.27
2019-04-03T15:20:07.263Z,4.30
2019-04-03T15:22:33.662Z,4.07
2019-04-03T15:24:59.872Z,2.27
2019-04-03T15:27:28.158Z,3.77
2019-04-03T15:29:54.890Z,3.50
2019-04-03T15:32:21.079Z,8.40
2019-04-03T15:34:50.013Z,9.13
2019-04-03T15:37:15.840Z,3.87
2019-04-03T15:39:42.553Z,3.93
2019-04-03T15:42:08.825Z,2.50
2019-04-03T15:44:35.187Z,3.07
2019-04-03T15:47:02.250Z,4.50
2019-04-03T15:49:28.798Z,6.73
2019-04-03T15:51:54.990Z,2.90
2019-04-03T15:54:21.348Z,2.50
2019-04-03T15:56:47.553Z,2.83
2019-04-03T15:59:14.152Z,4.93
2019-04-03T16:01:40.533Z,4.90
2019-04-03T16:04:07.036Z,3.47
2019-04-03T16:06:35.327Z,3.47
2019-04-03T16:09:01.448Z,12.57
2019-04-03T16:11:29.840Z,5.07
2019-04-03T16:13:55.814Z,4.30
2019-04-03T16:16:22.028Z,10.47
2019-04-03T16:18:48.197Z,5.10
2019-04-03T16:21:17.630Z,4.03
2019-04-03T16:23:44.094Z,5.43
2019-04-03T16:26:10.405Z,4.07
2019-04-03T16:28:37.109Z,17.30
2019-04-03T16:31:03.722Z,4.10
2019-04-03T16:33:30.130Z,5.53
2019-04-03T16:35:56.344Z,6.57
2019-04-03T16:38:22.856Z,5.40
2019-04-03T16:40:49.228Z,5.03
2019-04-03T16:43:15.590Z,4.63
2019-04-03T16:45:41.783Z,10.03
2019-04-03T16:48:07.964Z,8.47
2019-04-03T16:50:34.156Z,7.80
2019-04-03T16:53:00.689Z,6.73
2019-04-03T16:55:26.941Z,6.53
2019-04-03T16:57:54.611Z,5.90
2019-04-03T17:00:21.771Z,7.57
2019-04-03T17:02:48.541Z,6.37
2019-04-03T17:05:15.204Z,5.17
2019-04-03T17:07:41.881Z,4.53
2019-04-03T17:10:09.945Z,4.77
2019-04-03T17:12:36.955Z,4.80
2019-04-03T17:15:05.617Z,4.90
2019-04-03T17:17:31.875Z,6.03
2019-04-03T17:19:58.594Z,5.53
2019-04-03T17:22:25.073Z,4.23
2019-04-03T17:24:54.370Z,3.27
2019-04-03T17:27:19.821Z,7.03
2019-04-03T17:29:47.401Z,5.67
2019-04-03T17:32:15.434Z,4.27
2019-04-03T17:34:43.391Z,4.10
2019-04-03T17:37:10.024Z,3.10
2019-04-03T17:39:36.304Z,4.28
2019-04-03T17:42:02.628Z,3.30
2019-04-03T17:44:28.783Z,3.53
2019-04-03T17:46:59.830Z,3.40
2019-04-03T17:49:28.298Z,3.90
2019-04-03T17:51:54.108Z,3.60
2019-04-03T17:54:20.300Z,3.60
2019-04-03T17:56:46.510Z,3.90
2019-04-03T17:59:12.669Z,4.70
2019-04-03T18:01:38.925Z,4.70
2019-04-03T18:04:05.169Z,5.70
2019-04-03T18:06:31.425Z,7.07
2019-04-03T18:08:57.612Z,4.80
2019-04-03T18:11:23.799Z,6.20
2019-04-03T18:13:51.043Z,5.27
2019-04-03T18:16:17.226Z,5.87
2019-04-03T18:18:43.431Z,4.50
2019-04-03T18:21:09.635Z,4.80
2019-04-03T18:23:35.929Z,4.13
2019-04-03T18:26:02.548Z,4.00
2019-04-03T18:28:28.848Z,4.67
2019-04-03T18:30:55.121Z,4.87
2019-04-03T18:33:21.314Z,5.63
2019-04-03T18:35:47.498Z,4.93
2019-04-03T18:38:13.679Z,3.97
2019-04-03T18:40:39.892Z,3.43
2019-04-03T18:43:06.145Z,5.60
2019-04-03T18:45:32.343Z,6.13
2019-04-03T18:47:58.662Z,5.33
2019-04-03T18:50:24.921Z,4.10
2019-04-03T18:52:51.312Z,4.17
2019-04-03T18:55:17.532Z,4.17
2019-04-03T18:57:43.801Z,4.97
2019-04-03T19:00:11.106Z,5.03
2019-04-03T19:02:37.344Z,3.87
2019-04-03T19:05:09.013Z,4.60
2019-04-03T19:07:35.131Z,5.87
2019-04-03T19:10:07.336Z,5.30
2019-04-03T19:12:35.418Z,4.03
2019-04-03T19:14:57.628Z,4.93
2019-04-03T19:17:24.838Z,4.80
2019-04-03T19:19:54.434Z,4.63
2019-04-03T19:22:19.773Z,5.10
2019-04-03T19:24:46.076Z,5.33
2019-04-03T19:27:12.246Z,5.30
2019-04-03T19:29:38.446Z,4.80
2019-04-03T19:32:04.654Z,4.63
2019-04-03T19:34:30.802Z,3.73
2019-04-03T19:36:56.959Z,4.37
2019-04-03T19:39:23.160Z,5.60
2019-04-03T19:41:49.348Z,5.37
2019-04-03T19:44:16.139Z,4.87
2019-04-03T19:46:43.745Z,6.33
2019-04-03T19:49:09.901Z,5.47
2019-04-03T19:51:37.558Z,5.53
2019-04-03T19:54:04.231Z,4.03
2019-04-03T19:56:30.393Z,3.67
2019-04-03T19:58:59.355Z,3.73
2019-04-03T20:01:24.701Z,3.77
2019-04-03T20:03:50.868Z,3.30
2019-04-03T20:06:17.048Z,3.80
2019-04-03T20:08:43.375Z,3.40
2019-04-03T20:11:09.662Z,3.30
2019-04-03T20:13:35.848Z,3.43
2019-04-03T20:16:02.126Z,4.07
2019-04-03T20:18:28.376Z,2.83
2019-04-03T20:20:54.569Z,3.27
2019-04-03T20:23:20.774Z,2.83
2019-04-03T20:25:46.944Z,3.57
2019-04-03T20:28:13.247Z,3.77
2019-04-03T20:30:39.665Z,4.27
2019-04-03T20:33:05.949Z,4.00
2019-04-03T20:35:32.106Z,4.00
2019-04-03T20:37:58.342Z,3.30
2019-04-03T20:40:24.537Z,3.40
2019-04-03T20:42:50.835Z,4.60
2019-04-03T20:45:18.855Z,3.90
2019-04-03T20:47:45.094Z,4.40
2019-04-03T20:50:11.452Z,3.50
2019-04-03T20:52:37.657Z,3.57
2019-04-03T20:55:07.077Z,3.70
2019-04-03T20:57:33.938Z,3.60
2019-04-03T21:00:03.238Z,3.50
2019-04-03T21:02:28.440Z,2.63
2019-04-03T21:04:54.644Z,3.37
2019-04-03T21:07:23.735Z,3.63
2019-04-03T21:09:48.905Z,3.40
2019-04-03T21:12:15.083Z,3.40
2019-04-03T21:14:41.951Z,2.80
2019-04-03T21:17:08.311Z,2.47
2019-04-03T21:19:34.508Z,2.50
2019-04-03T21:22:00.723Z,3.37
2019-04-03T21:24:26.864Z,2.87
2019-04-03T21:26:53.034Z,3.43
2019-04-03T21:29:19.346Z,3.53
2019-04-03T21:31:45.515Z,3.23
2019-04-03T21:34:11.790Z,2.80
2019-04-03T21:36:38.862Z,3.27
2019-04-03T21:39:06.177Z,2.93
2019-04-03T21:41:32.349Z,2.90
2019-04-03T21:43:59.964Z,2.93
2019-04-03T21:46:26.728Z,3.07
2019-04-03T21:48:52.883Z,2.73
2019-04-03T21:51:20.809Z,3.30
2019-04-03T21:53:47.321Z,3.80
2019-04-03T21:56:13.489Z,3.60
2019-04-03T21:58:40.338Z,3.57
2019-04-03T22:01:14.824Z,3.30
2019-04-03T22:03:41.636Z,3.73
2019-04-03T22:06:07.847Z,4.53
2019-04-03T22:08:34.035Z,4.30
2019-04-03T22:11:03.750Z,4.77
2019-04-03T22:13:28.481Z,4.80
2019-04-03T22:15:54.762Z,4.97
2019-04-03T22:18:23.507Z,4.10
2019-04-03T22:20:49.309Z,4.30
2019-04-03T22:23:15.597Z,4.40
2019-04-03T22:25:41.898Z,3.80
2019-04-03T22:28:08.110Z,4.43
2019-04-03T22:30:34.271Z,4.63
2019-04-03T22:33:00.475Z,4.00
2019-04-03T22:35:27.943Z,3.70
2019-04-03T22:37:54.576Z,3.67
2019-04-03T22:40:20.736Z,3.63
2019-04-03T22:42:47.048Z,3.20
2019-04-03T22:45:13.355Z,4.57
2019-04-03T22:47:39.523Z,3.83
2019-04-03T22:50:05.940Z,4.20
2019-04-03T22:52:32.190Z,3.60
2019-04-03T22:54:58.348Z,2.43
2019-04-03T22:57:24.574Z,3.00
2019-04-03T22:59:50.849Z,2.20
2019-04-03T23:02:17.026Z,2.53
2019-04-03T23:04:46.206Z,2.50
2019-04-03T23:07:11.477Z,2.43
2019-04-03T23:09:37.762Z,2.20
2019-04-03T23:12:04.090Z,2.90
2019-04-03T23:14:30.394Z,2.73
2019-04-03T23:16:56.592Z,2.60
2019-04-03T23:19:22.950Z,2.50
2019-04-03T23:21:49.258Z,3.23
2019-04-03T23:24:15.447Z,3.53
2019-04-03T23:26:41.780Z,5.17
2019-04-03T23:29:07.950Z,5.10
2019-04-03T23:31:34.218Z,5.13
2019-04-03T23:34:00.540Z,5.03
2019-04-03T23:36:26.808Z,4.83
2019-04-03T23:38:53.123Z,4.83
2019-04-03T23:41:19.479Z,3.87
2019-04-03T23:43:45.738Z,3.87
2019-04-03T23:46:12.828Z,4.50
2019-04-03T23:48:40.161Z,3.57
2019-04-03T23:51:06.325Z,3.37
2019-04-03T23:53:32.749Z,3.63
2019-04-03T23:55:59.177Z,3.80
2019-04-03T23:58:25.368Z,3.53
